createdAt,value
2017-05-28T00:00:33.553Z,1008.00
2017-05-28T00:01:34.982Z,1007.98
2017-05-28T00:02:36.417Z,1007.99
2017-05-28T00:03:37.851Z,1008.01
2017-05-28T00:04:39.291Z,1008.00
2017-05-28T00:05:40.725Z,1008.02
2017-05-28T00:06:42.165Z,1008.00
2017-05-28T00:07:43.604Z,1007.96
2017-05-28T00:08:45.032Z,1007.97
2017-05-28T00:09:46.465Z,1007.99
2017-05-28T00:10:47.900Z,1007.98
2017-05-28T00:11:49.344Z,1007.92
2017-05-28T00:12:50.781Z,1007.99
2017-05-28T00:13:52.211Z,1007.95
2017-05-28T00:14:53.640Z,1007.97
2017-05-28T00:15:55.067Z,1007.95
2017-05-28T00:16:56.503Z,1007.96
2017-05-28T00:17:57.940Z,1007.99
2017-05-28T00:18:59.366Z,1007.97
2017-05-28T00:20:00.806Z,1007.98
2017-05-28T00:21:02.235Z,1008.01
2017-05-28T00:22:03.667Z,1008.01
2017-05-28T00:23:05.101Z,1007.97
2017-05-28T00:24:06.551Z,1008.01
2017-05-28T00:25:07.979Z,1008.00
2017-05-28T00:26:09.411Z,1008.01
2017-05-28T00:27:10.851Z,1008.05
2017-05-28T00:28:12.282Z,1008.04
2017-05-28T00:29:13.711Z,1008.08
2017-05-28T00:30:15.153Z,1008.11
2017-05-28T00:31:16.584Z,1008.12
2017-05-28T00:32:18.016Z,1008.19
2017-05-28T00:33:19.466Z,1008.25
2017-05-28T00:34:20.896Z,1008.23
2017-05-28T00:35:22.328Z,1008.30
2017-05-28T00:36:23.761Z,1008.28
2017-05-28T00:37:25.196Z,1008.32
2017-05-28T00:38:26.635Z,1008.37
2017-05-28T00:39:28.070Z,1008.38
2017-05-28T00:40:29.506Z,1008.42
2017-05-28T00:41:30.935Z,1008.44
2017-05-28T00:42:32.365Z,1008.42
2017-05-28T00:43:33.805Z,1008.37
2017-05-28T00:44:35.236Z,1008.40
2017-05-28T00:45:36.662Z,1008.41
2017-05-28T00:46:38.089Z,1008.40
2017-05-28T00:47:39.526Z,1008.38
2017-05-28T00:48:41.387Z,1008.33
2017-05-28T00:49:42.830Z,1008.37
2017-05-28T00:50:44.267Z,1008.33
2017-05-28T00:51:45.701Z,1008.37
2017-05-28T00:52:47.131Z,1008.36
2017-05-28T00:53:48.565Z,1008.38
2017-05-28T00:54:50.009Z,1008.30
2017-05-28T00:55:51.448Z,1008.37
2017-05-28T00:56:52.880Z,1008.34
2017-05-28T00:57:54.311Z,1008.41
2017-05-28T00:58:55.750Z,1008.39
2017-05-28T00:59:57.192Z,1008.40
2017-05-28T01:00:58.628Z,1008.42
2017-05-28T01:02:00.069Z,1008.46
2017-05-28T01:03:01.505Z,1008.51
2017-05-28T01:04:02.940Z,1008.48
2017-05-28T01:05:04.370Z,1008.49
2017-05-28T01:06:05.811Z,1008.55
2017-05-28T01:07:07.252Z,1008.53
2017-05-28T01:08:08.689Z,1008.53
2017-05-28T01:09:10.120Z,1008.57
2017-05-28T01:10:11.556Z,1008.51
2017-05-28T01:11:12.991Z,1008.55
2017-05-28T01:12:14.425Z,1008.49
2017-05-28T01:13:15.854Z,1008.46
2017-05-28T01:14:17.283Z,1008.46
2017-05-28T01:15:18.718Z,1008.47
2017-05-28T01:16:20.149Z,1008.44
2017-05-28T01:17:21.581Z,1008.40
2017-05-28T01:18:23.015Z,1008.44
2017-05-28T01:19:24.449Z,1008.42
2017-05-28T01:20:25.876Z,1008.35
2017-05-28T01:21:27.317Z,1008.37
2017-05-28T01:22:28.744Z,1008.31
2017-05-28T01:23:30.181Z,1008.29
2017-05-28T01:24:31.612Z,1008.27
2017-05-28T01:25:33.046Z,1008.26
2017-05-28T01:26:35.265Z,1008.28
2017-05-28T01:27:36.702Z,1008.24
2017-05-28T01:28:38.128Z,1008.30
2017-05-28T01:29:39.562Z,1008.31
2017-05-28T01:30:41.026Z,1008.34
2017-05-28T01:31:42.457Z,1008.34
2017-05-28T01:32:43.883Z,1008.36
2017-05-28T01:33:45.327Z,1008.37
2017-05-28T01:34:46.766Z,1008.32
2017-05-28T01:35:48.933Z,1008.35
2017-05-28T01:36:50.365Z,1008.36
2017-05-28T01:37:51.795Z,1008.30
2017-05-28T01:38:53.251Z,1008.31
2017-05-28T01:39:54.713Z,1008.30
2017-05-28T01:40:56.143Z,1008.26
2017-05-28T01:41:57.575Z,1008.28
2017-05-28T01:42:59.029Z,1008.32
2017-05-28T01:44:00.464Z,1008.31
2017-05-28T01:45:01.905Z,1008.36
2017-05-28T01:46:03.338Z,1008.35
2017-05-28T01:47:04.770Z,1008.35
2017-05-28T01:48:06.194Z,1008.36
2017-05-28T01:49:07.636Z,1008.40
2017-05-28T01:50:09.072Z,1008.38
2017-05-28T01:51:10.509Z,1008.38
2017-05-28T01:52:11.944Z,1008.37
2017-05-28T01:53:13.397Z,1008.39
2017-05-28T01:54:14.812Z,1008.34
2017-05-28T01:55:16.266Z,1008.35
2017-05-28T01:56:17.695Z,1008.31
2017-05-28T01:57:19.137Z,1008.32
2017-05-28T01:58:20.580Z,1008.31
2017-05-28T01:59:22.013Z,1008.30
2017-05-28T02:00:23.462Z,1008.30
2017-05-28T02:01:24.892Z,1008.35
2017-05-28T02:02:26.320Z,1008.34
2017-05-28T02:03:27.753Z,1008.36
2017-05-28T02:04:29.183Z,1008.38
2017-05-28T02:05:30.619Z,1008.31
2017-05-28T02:06:32.051Z,1008.32
2017-05-28T02:07:33.486Z,1008.25
2017-05-28T02:08:34.924Z,1008.33
2017-05-28T02:09:36.355Z,1008.29
2017-05-28T02:10:37.792Z,1008.28
2017-05-28T02:11:39.234Z,1008.29
2017-05-28T02:12:40.662Z,1008.25
2017-05-28T02:13:42.097Z,1008.24
2017-05-28T02:14:43.531Z,1008.26
2017-05-28T02:15:45.872Z,1008.23
2017-05-28T02:16:48.215Z,1008.23
2017-05-28T02:17:48.669Z,1008.25
2017-05-28T02:18:50.630Z,1008.28
2017-05-28T02:19:52.066Z,1008.30
2017-05-28T02:20:53.494Z,1008.28
2017-05-28T02:21:54.921Z,1008.27
2017-05-28T02:22:56.358Z,1008.33
2017-05-28T02:23:58.715Z,1008.30
2017-05-28T02:24:59.203Z,1008.25
2017-05-28T02:26:00.632Z,1008.26
2017-05-28T02:27:02.065Z,1008.22
2017-05-28T02:28:03.501Z,1008.25
2017-05-28T02:29:04.923Z,1008.18
2017-05-28T02:30:06.354Z,1008.15
2017-05-28T02:31:07.791Z,1008.10
2017-05-28T02:32:09.229Z,1008.09
2017-05-28T02:33:10.657Z,1008.08
2017-05-28T02:34:12.105Z,1008.14
2017-05-28T02:35:13.542Z,1008.16
2017-05-28T02:36:14.978Z,1008.16
2017-05-28T02:37:16.397Z,1008.18
2017-05-28T02:38:17.833Z,1008.23
2017-05-28T02:39:19.266Z,1008.26
2017-05-28T02:40:20.701Z,1008.24
2017-05-28T02:41:22.138Z,1008.23
2017-05-28T02:42:23.568Z,1008.24
2017-05-28T02:43:25.000Z,1008.24
2017-05-28T02:44:26.427Z,1008.27
2017-05-28T02:45:27.864Z,1008.25
2017-05-28T02:46:29.289Z,1008.27
2017-05-28T02:47:30.725Z,1008.30
2017-05-28T02:48:32.151Z,1008.32
2017-05-28T02:49:33.589Z,1008.32
2017-05-28T02:50:35.013Z,1008.35
2017-05-28T02:51:36.447Z,1008.37
2017-05-28T02:52:37.881Z,1008.33
2017-05-28T02:53:39.313Z,1008.26
2017-05-28T02:54:40.744Z,1008.27
2017-05-28T02:55:42.179Z,1008.26
2017-05-28T02:56:43.614Z,1008.27
2017-05-28T02:57:45.045Z,1008.26
2017-05-28T02:58:46.473Z,1008.26
2017-05-28T02:59:47.916Z,1008.32
2017-05-28T03:00:49.352Z,1008.32
2017-05-28T03:01:50.788Z,1008.29
2017-05-28T03:02:52.207Z,1008.26
2017-05-28T03:03:53.642Z,1008.24
2017-05-28T03:04:55.079Z,1008.26
2017-05-28T03:05:56.520Z,1008.23
2017-05-28T03:06:57.952Z,1008.30
2017-05-28T03:08:00.135Z,1008.30
2017-05-28T03:09:01.558Z,1008.34
2017-05-28T03:10:02.991Z,1008.31
2017-05-28T03:11:04.424Z,1008.38
2017-05-28T03:12:05.857Z,1008.39
2017-05-28T03:13:07.294Z,1008.40
2017-05-28T03:14:08.731Z,1008.42
2017-05-28T03:15:10.746Z,1008.44
2017-05-28T03:16:12.177Z,1008.47
2017-05-28T03:17:13.619Z,1008.43
2017-05-28T03:18:15.052Z,1008.48
2017-05-28T03:19:16.480Z,1008.45
2017-05-28T03:20:17.913Z,1008.48
2017-05-28T03:21:19.356Z,1008.50
2017-05-28T03:22:20.782Z,1008.55
2017-05-28T03:23:22.224Z,1008.56
2017-05-28T03:24:23.654Z,1008.61
2017-05-28T03:25:25.090Z,1008.66
2017-05-28T03:26:26.528Z,1008.68
2017-05-28T03:27:27.961Z,1008.69
2017-05-28T03:28:29.390Z,1008.67
2017-05-28T03:29:30.829Z,1008.71
2017-05-28T03:30:32.262Z,1008.74
2017-05-28T03:31:33.697Z,1008.77
2017-05-28T03:32:35.126Z,1008.78
2017-05-28T03:33:37.530Z,1008.79
2017-05-28T03:34:38.962Z,1008.78
2017-05-28T03:35:40.391Z,1008.86
2017-05-28T03:36:41.819Z,1008.84
2017-05-28T03:37:43.253Z,1008.89
2017-05-28T03:38:44.687Z,1008.84
2017-05-28T03:39:46.126Z,1008.88
2017-05-28T03:40:47.562Z,1008.87
2017-05-28T03:41:49.001Z,1008.88
2017-05-28T03:42:50.433Z,1008.94
2017-05-28T03:43:51.864Z,1008.92
2017-05-28T03:44:53.291Z,1008.97
2017-05-28T03:45:54.724Z,1008.94
2017-05-28T03:46:56.164Z,1008.97
2017-05-28T03:47:57.599Z,1008.99
2017-05-28T03:48:59.029Z,1009.02
2017-05-28T03:50:00.462Z,1009.04
2017-05-28T03:51:01.898Z,1009.05
2017-05-28T03:52:03.335Z,1009.11
2017-05-28T03:53:04.767Z,1009.13
2017-05-28T03:54:06.200Z,1009.14
2017-05-28T03:55:07.636Z,1009.14
2017-05-28T03:56:09.088Z,1009.19
2017-05-28T03:57:10.525Z,1009.17
2017-05-28T03:58:11.964Z,1009.20
2017-05-28T03:59:13.405Z,1009.18
2017-05-28T04:00:15.631Z,1009.18
2017-05-28T04:01:17.061Z,1009.21
2017-05-28T04:02:18.564Z,1009.24
2017-05-28T04:03:20.006Z,1009.24
2017-05-28T04:04:21.455Z,1009.27
2017-05-28T04:05:22.939Z,1009.31
2017-05-28T04:06:24.381Z,1009.31
2017-05-28T04:07:25.812Z,1009.34
2017-05-28T04:08:27.256Z,1009.30
2017-05-28T04:09:28.693Z,1009.29
2017-05-28T04:10:30.129Z,1009.28
2017-05-28T04:11:31.571Z,1009.33
2017-05-28T04:12:33.064Z,1009.31
2017-05-28T04:13:34.502Z,1009.28
2017-05-28T04:14:35.944Z,1009.31
2017-05-28T04:15:37.381Z,1009.25
2017-05-28T04:16:38.824Z,1009.25
2017-05-28T04:17:40.265Z,1009.23
2017-05-28T04:18:41.692Z,1009.28
2017-05-28T04:19:43.128Z,1009.32
2017-05-28T04:20:44.566Z,1009.36
2017-05-28T04:21:46.005Z,1009.39
2017-05-28T04:22:47.440Z,1009.51
2017-05-28T04:23:48.920Z,1009.53
2017-05-28T04:24:50.359Z,1009.56
2017-05-28T04:25:51.790Z,1009.60
2017-05-28T04:26:53.222Z,1009.62
2017-05-28T04:27:54.661Z,1009.63
2017-05-28T04:28:56.093Z,1009.69
2017-05-28T04:29:57.522Z,1009.68
2017-05-28T04:30:58.963Z,1009.69
2017-05-28T04:32:00.497Z,1009.77
2017-05-28T04:33:01.928Z,1009.76
2017-05-28T04:34:03.363Z,1009.72
2017-05-28T04:35:04.816Z,1009.74
2017-05-28T04:36:06.291Z,1009.75
2017-05-28T04:37:07.740Z,1009.76
2017-05-28T04:38:09.181Z,1009.73
2017-05-28T04:39:10.660Z,1009.72
2017-05-28T04:40:12.094Z,1009.72
2017-05-28T04:41:13.537Z,1009.71
2017-05-28T04:42:14.976Z,1009.70
2017-05-28T04:43:16.412Z,1009.70
2017-05-28T04:44:17.853Z,1009.67
2017-05-28T04:45:19.287Z,1009.71
2017-05-28T04:46:20.715Z,1009.75
2017-05-28T04:47:22.162Z,1009.74
2017-05-28T04:48:23.596Z,1009.76
2017-05-28T04:49:25.032Z,1009.76
2017-05-28T04:50:26.503Z,1009.74
2017-05-28T04:51:27.943Z,1009.72
2017-05-28T04:52:29.383Z,1009.71
2017-05-28T04:53:30.828Z,1009.73
2017-05-28T04:54:32.266Z,1009.76
2017-05-28T04:55:33.707Z,1009.74
2017-05-28T04:56:35.148Z,1009.71
2017-05-28T04:57:36.612Z,1009.67
2017-05-28T04:58:38.047Z,1009.65
2017-05-28T04:59:39.486Z,1009.62
2017-05-28T05:00:40.917Z,1009.61
2017-05-28T05:01:42.359Z,1009.63
2017-05-28T05:02:43.794Z,1009.64
2017-05-28T05:03:45.232Z,1009.70
2017-05-28T05:04:46.673Z,1009.70
2017-05-28T05:05:48.112Z,1009.70
2017-05-28T05:06:49.546Z,1009.68
2017-05-28T05:07:50.980Z,1009.70
2017-05-28T05:08:52.427Z,1009.71
2017-05-28T05:09:53.862Z,1009.76
2017-05-28T05:10:55.295Z,1009.74
2017-05-28T05:11:56.742Z,1009.74
2017-05-28T05:12:58.180Z,1009.80
2017-05-28T05:13:59.614Z,1009.77
2017-05-28T05:15:01.060Z,1009.76
2017-05-28T05:16:02.498Z,1009.74
2017-05-28T05:17:03.935Z,1009.68
2017-05-28T05:18:05.393Z,1009.65
2017-05-28T05:19:06.837Z,1009.63
2017-05-28T05:20:08.272Z,1009.53
2017-05-28T05:21:10.657Z,1009.49
2017-05-28T05:22:12.096Z,1009.44
2017-05-28T05:23:13.534Z,1009.47
2017-05-28T05:24:14.972Z,1009.52
2017-05-28T05:25:16.454Z,1009.52
2017-05-28T05:26:17.893Z,1009.61
2017-05-28T05:27:19.342Z,1009.59
2017-05-28T05:28:20.779Z,1009.69
2017-05-28T05:29:22.292Z,1009.66
2017-05-28T05:30:24.199Z,1009.63
2017-05-28T05:31:25.630Z,1009.61
2017-05-28T05:32:27.068Z,1009.57
2017-05-28T05:33:28.500Z,1009.61
2017-05-28T05:34:29.932Z,1009.55
2017-05-28T05:35:31.366Z,1009.55
2017-05-28T05:36:32.806Z,1009.52
2017-05-28T05:37:34.243Z,1009.51
2017-05-28T05:38:35.673Z,1009.47
2017-05-28T05:39:37.104Z,1009.52
2017-05-28T05:40:38.545Z,1009.60
2017-05-28T05:41:39.982Z,1009.64
2017-05-28T05:42:41.409Z,1009.66
2017-05-28T05:43:42.839Z,1009.70
2017-05-28T05:44:44.271Z,1009.75
2017-05-28T05:45:45.717Z,1009.73
2017-05-28T05:46:47.156Z,1009.69
2017-05-28T05:47:48.590Z,1009.74
2017-05-28T05:48:50.039Z,1009.78
2017-05-28T05:49:51.471Z,1009.77
2017-05-28T05:50:53.637Z,1009.76
2017-05-28T05:51:55.073Z,1009.71
2017-05-28T05:52:56.512Z,1009.69
2017-05-28T05:53:57.949Z,1009.67
2017-05-28T05:54:59.390Z,1009.70
2017-05-28T05:56:00.830Z,1009.74
2017-05-28T05:57:02.271Z,1009.82
2017-05-28T05:58:03.697Z,1009.86
2017-05-28T05:59:05.133Z,1009.92
2017-05-28T06:00:06.578Z,1009.97
2017-05-28T06:01:08.016Z,1010.06
2017-05-28T06:02:09.452Z,1010.11
2017-05-28T06:03:10.983Z,1010.20
2017-05-28T06:04:12.423Z,1010.21
2017-05-28T06:05:13.853Z,1010.17
2017-05-28T06:06:15.285Z,1010.19
2017-05-28T06:07:16.765Z,1010.20
2017-05-28T06:08:18.194Z,1010.17
2017-05-28T06:09:19.632Z,1010.11
2017-05-28T06:10:21.071Z,1010.16
2017-05-28T06:11:22.518Z,1010.21
2017-05-28T06:12:23.950Z,1010.20
2017-05-28T06:13:25.384Z,1010.17
2017-05-28T06:14:26.826Z,1010.15
2017-05-28T06:15:28.261Z,1010.14
2017-05-28T06:16:29.698Z,1010.15
2017-05-28T06:17:31.132Z,1010.15
2017-05-28T06:18:32.574Z,1010.15
2017-05-28T06:19:34.012Z,1010.11
2017-05-28T06:20:35.449Z,1010.07
2017-05-28T06:21:36.888Z,1010.03
2017-05-28T06:22:38.317Z,1010.02
2017-05-28T06:23:39.753Z,1010.00
2017-05-28T06:24:41.188Z,1009.95
2017-05-28T06:25:42.637Z,1009.96
2017-05-28T06:26:44.075Z,1009.93
2017-05-28T06:27:45.522Z,1009.92
2017-05-28T06:28:46.961Z,1009.88
2017-05-28T06:29:48.405Z,1009.86
2017-05-28T06:30:50.757Z,1009.81
2017-05-28T06:31:52.192Z,1009.80
2017-05-28T06:32:53.624Z,1009.80
2017-05-28T06:33:55.061Z,1009.73
2017-05-28T06:34:56.517Z,1009.69
2017-05-28T06:35:57.952Z,1009.67
2017-05-28T06:36:59.383Z,1009.62
2017-05-28T06:38:00.831Z,1009.59
2017-05-28T06:39:02.273Z,1009.63
2017-05-28T06:40:03.708Z,1009.65
2017-05-28T06:41:05.143Z,1009.69
2017-05-28T06:42:06.573Z,1009.77
2017-05-28T06:43:08.018Z,1009.94
2017-05-28T06:44:09.450Z,1010.24
2017-05-28T06:45:10.883Z,1010.61
2017-05-28T06:46:12.319Z,1010.85
2017-05-28T06:47:13.752Z,1010.95
2017-05-28T06:48:15.188Z,1010.99
2017-05-28T06:49:16.620Z,1011.03
2017-05-28T06:50:18.054Z,1010.86
2017-05-28T06:51:20.152Z,1010.72
2017-05-28T06:52:21.594Z,1010.66
2017-05-28T06:53:23.029Z,1010.61
2017-05-28T06:54:24.465Z,1010.56
2017-05-28T06:55:25.893Z,1010.44
2017-05-28T06:56:27.328Z,1010.29
2017-05-28T06:57:28.768Z,1010.04
2017-05-28T06:58:30.205Z,1009.79
2017-05-28T06:59:31.629Z,1009.63
2017-05-28T07:00:33.073Z,1009.55
2017-05-28T07:01:34.509Z,1009.50
2017-05-28T07:02:35.945Z,1009.39
2017-05-28T07:03:37.384Z,1009.34
2017-05-28T07:04:38.818Z,1009.30
2017-05-28T07:05:40.249Z,1009.27
2017-05-28T07:06:41.685Z,1009.27
2017-05-28T07:07:43.125Z,1009.23
2017-05-28T07:08:44.561Z,1009.23
2017-05-28T07:09:46.001Z,1009.27
2017-05-28T07:10:47.444Z,1009.34
2017-05-28T07:11:48.885Z,1009.46
2017-05-28T07:12:50.320Z,1009.54
2017-05-28T07:13:51.753Z,1009.59
2017-05-28T07:14:53.206Z,1009.62
2017-05-28T07:15:54.634Z,1009.63
2017-05-28T07:16:56.245Z,1009.60
2017-05-28T07:17:57.681Z,1009.59
2017-05-28T07:18:59.134Z,1009.59
2017-05-28T07:20:00.578Z,1009.65
2017-05-28T07:21:02.018Z,1009.65
2017-05-28T07:22:03.457Z,1009.63
2017-05-28T07:23:04.897Z,1009.55
2017-05-28T07:24:06.343Z,1009.59
2017-05-28T07:25:07.778Z,1009.63
2017-05-28T07:26:09.211Z,1009.66
2017-05-28T07:27:10.643Z,1009.66
2017-05-28T07:28:12.083Z,1009.77
2017-05-28T07:29:13.632Z,1009.72
2017-05-28T07:30:15.071Z,1009.69
2017-05-28T07:31:16.502Z,1009.72
2017-05-28T07:32:17.941Z,1009.75
2017-05-28T07:33:19.376Z,1009.70
2017-05-28T07:34:20.814Z,1009.71
2017-05-28T07:35:22.266Z,1009.71
2017-05-28T07:36:23.694Z,1009.71
2017-05-28T07:37:25.129Z,1009.67
2017-05-28T07:38:26.568Z,1009.67
2017-05-28T07:39:28.014Z,1009.64
2017-05-28T07:40:29.444Z,1009.60
2017-05-28T07:41:30.888Z,1009.56
2017-05-28T07:42:32.322Z,1009.57
2017-05-28T07:43:33.765Z,1009.60
2017-05-28T07:44:35.208Z,1009.62
2017-05-28T07:45:36.645Z,1009.62
2017-05-28T07:46:38.081Z,1009.64
2017-05-28T07:47:39.522Z,1009.59
2017-05-28T07:48:40.954Z,1009.59
2017-05-28T07:49:42.386Z,1009.55
2017-05-28T07:50:43.816Z,1009.53
2017-05-28T07:51:45.249Z,1009.50
2017-05-28T07:52:46.687Z,1009.47
2017-05-28T07:53:48.129Z,1009.45
2017-05-28T07:54:49.565Z,1009.50
2017-05-28T07:55:51.012Z,1009.47
2017-05-28T07:56:52.445Z,1009.49
2017-05-28T07:57:53.882Z,1009.49
2017-05-28T07:58:55.327Z,1009.56
2017-05-28T07:59:56.764Z,1009.56
2017-05-28T08:00:58.219Z,1009.52
2017-05-28T08:01:59.657Z,1009.53
2017-05-28T08:03:01.091Z,1009.58
2017-05-28T08:04:02.531Z,1009.57
2017-05-28T08:05:03.964Z,1009.49
2017-05-28T08:06:05.400Z,1009.54
2017-05-28T08:07:06.846Z,1009.56
2017-05-28T08:08:08.282Z,1009.59
2017-05-28T08:09:09.725Z,1009.60
2017-05-28T08:10:11.169Z,1009.63
2017-05-28T08:11:12.604Z,1009.72
2017-05-28T08:12:14.040Z,1009.73
2017-05-28T08:13:15.477Z,1009.77
2017-05-28T08:14:16.914Z,1009.77
2017-05-28T08:15:18.349Z,1009.82
2017-05-28T08:16:19.796Z,1009.79
2017-05-28T08:17:21.236Z,1009.79
2017-05-28T08:18:22.673Z,1009.75
2017-05-28T08:19:24.107Z,1009.82
2017-05-28T08:20:25.555Z,1009.82
2017-05-28T08:21:26.986Z,1009.82
2017-05-28T08:22:28.427Z,1009.80
2017-05-28T08:23:29.868Z,1009.80
2017-05-28T08:24:31.304Z,1009.82
2017-05-28T08:25:32.736Z,1009.83
2017-05-28T08:26:34.178Z,1009.82
2017-05-28T08:27:35.614Z,1009.87
2017-05-28T08:28:37.046Z,1009.86
2017-05-28T08:29:38.491Z,1009.88
2017-05-28T08:30:39.942Z,1009.92
2017-05-28T08:31:41.380Z,1009.95
2017-05-28T08:32:42.809Z,1009.95
2017-05-28T08:33:44.251Z,1009.98
2017-05-28T08:34:45.696Z,1009.99
2017-05-28T08:35:47.135Z,1009.95
2017-05-28T08:36:48.603Z,1009.96
2017-05-28T08:37:50.046Z,1009.97
2017-05-28T08:38:51.488Z,1010.02
2017-05-28T08:39:52.933Z,1009.95
2017-05-28T08:40:54.371Z,1009.93
2017-05-28T08:41:55.815Z,1009.95
2017-05-28T08:42:57.255Z,1010.02
2017-05-28T08:43:58.696Z,1010.05
2017-05-28T08:45:00.130Z,1010.05
2017-05-28T08:46:01.596Z,1010.07
2017-05-28T08:47:03.040Z,1010.12
2017-05-28T08:48:04.480Z,1010.05
2017-05-28T08:49:05.918Z,1010.07
2017-05-28T08:50:07.355Z,1010.10
2017-05-28T08:51:08.787Z,1010.05
2017-05-28T08:52:10.226Z,1010.03
2017-05-28T08:53:11.662Z,1010.04
2017-05-28T08:54:13.107Z,1009.99
2017-05-28T08:55:14.546Z,1009.94
2017-05-28T08:56:15.984Z,1009.98
2017-05-28T08:57:17.418Z,1010.04
2017-05-28T08:58:18.873Z,1010.08
2017-05-28T08:59:20.323Z,1010.15
2017-05-28T09:00:21.768Z,1010.18
2017-05-28T09:01:23.207Z,1010.21
2017-05-28T09:02:24.650Z,1010.19
2017-05-28T09:03:26.096Z,1010.23
2017-05-28T09:04:27.536Z,1010.25
2017-05-28T09:05:29.023Z,1010.28
2017-05-28T09:06:30.458Z,1010.24
2017-05-28T09:07:31.893Z,1010.27
2017-05-28T09:08:33.338Z,1010.25
2017-05-28T09:09:34.787Z,1010.24
2017-05-28T09:10:36.222Z,1010.34
2017-05-28T09:11:37.668Z,1010.38
2017-05-28T09:12:39.102Z,1010.43
2017-05-28T09:13:40.543Z,1010.61
2017-05-28T09:14:41.989Z,1010.80
2017-05-28T09:15:43.439Z,1011.08
2017-05-28T09:16:44.881Z,1011.30
2017-05-28T09:17:46.314Z,1011.49
2017-05-28T09:18:47.752Z,1011.53
2017-05-28T09:19:49.188Z,1011.60
2017-05-28T09:20:50.670Z,1011.52
2017-05-28T09:21:52.111Z,1011.53
2017-05-28T09:22:53.550Z,1011.46
2017-05-28T09:23:54.996Z,1011.66
2017-05-28T09:24:56.435Z,1011.76
2017-05-28T09:25:57.864Z,1011.72
2017-05-28T09:26:59.297Z,1011.52
2017-05-28T09:28:00.732Z,1011.40
2017-05-28T09:29:02.197Z,1011.35
2017-05-28T09:30:03.634Z,1011.31
2017-05-28T09:31:05.070Z,1011.26
2017-05-28T09:32:06.456Z,1011.26
2017-05-28T09:33:07.840Z,1011.26
2017-05-28T09:34:09.241Z,1011.26
2017-05-28T09:35:10.636Z,1011.26
2017-05-28T09:36:12.017Z,1011.26
2017-05-28T09:37:13.409Z,1011.26
2017-05-28T09:38:14.797Z,1011.26
2017-05-28T09:39:16.185Z,1011.26
2017-05-28T09:40:17.574Z,1011.26
2017-05-28T09:41:18.961Z,1011.26
2017-05-28T09:42:20.358Z,1011.26
2017-05-28T09:43:21.752Z,1011.26
2017-05-28T09:44:23.135Z,1011.26
2017-05-28T09:45:24.521Z,1011.26
2017-05-28T09:46:25.911Z,1011.26
2017-05-28T09:47:27.301Z,1011.26
2017-05-28T09:48:28.681Z,1011.26
2017-05-28T09:49:30.073Z,1011.26
2017-05-28T09:50:31.474Z,1011.26
2017-05-28T09:51:32.860Z,1011.26
2017-05-28T09:52:34.258Z,1011.26
2017-05-28T09:53:35.642Z,1011.26
2017-05-28T09:54:37.033Z,1011.26
2017-05-28T09:55:38.424Z,1011.26
2017-05-28T09:56:39.813Z,1011.26
2017-05-28T09:57:41.199Z,1011.26
2017-05-28T09:58:42.585Z,1011.26
2017-05-28T09:59:43.987Z,1011.26
2017-05-28T10:00:45.379Z,1011.26
2017-05-28T10:01:46.765Z,1011.26
2017-05-28T10:02:48.176Z,1011.26
2017-05-28T10:03:49.564Z,1011.26
2017-05-28T10:04:50.947Z,1011.26
2017-05-28T10:05:52.337Z,1011.26
2017-05-28T10:06:53.731Z,1011.26
2017-05-28T10:07:55.121Z,1011.26
2017-05-28T10:08:56.521Z,1011.26
2017-05-28T10:09:57.902Z,1011.26
2017-05-28T10:10:59.292Z,1011.26
2017-05-28T10:12:00.683Z,1011.26
2017-05-28T10:13:02.071Z,1011.26
2017-05-28T10:14:03.456Z,1011.26
2017-05-28T10:15:04.846Z,1011.26
2017-05-28T10:16:06.229Z,1011.26
2017-05-28T10:17:07.623Z,1011.26
2017-05-28T10:18:09.005Z,1011.26
2017-05-28T10:19:10.398Z,1011.26
2017-05-28T10:20:11.795Z,1011.26
2017-05-28T10:21:13.177Z,1011.26
2017-05-28T10:22:14.563Z,1011.26
2017-05-28T10:23:15.951Z,1011.26
2017-05-28T10:24:17.352Z,1011.26
2017-05-28T10:25:18.733Z,1011.26
2017-05-28T10:26:20.115Z,1011.26
2017-05-28T10:27:21.505Z,1011.26
2017-05-28T10:28:22.895Z,1011.26
